sensor_id;sensor_type;location;lat;lon;timestamp;P1;durP1;ratioP1;P2;durP2;ratioP2
45620;SDS011;31345;51.522;10.702;2023-04-25T00:01:34;7.17;;;4.23;;
45620;SDS011;31345;51.522;10.702;2023-04-25T00:04:08;6.83;;;4.57;;
45620;SDS011;31345;51.522;10.702;2023-04-25T00:06:43;6.67;;;5.03;;
45620;SDS011;31345;51.522;10.702;2023-04-25T00:09:10;6.23;;;4.03;;
45620;SDS011;31345;51.522;10.702;2023-04-25T00:11:40;8.37;;;4.57;;
45620;SDS011;31345;51.522;10.702;2023-04-25T00:14:12;11.30;;;4.80;;
45620;SDS011;31345;51.522;10.702;2023-04-25T00:16:46;9.07;;;4.60;;
45620;SDS011;31345;51.522;10.702;2023-04-25T00:19:14;5.97;;;4.40;;
45620;SDS011;31345;51.522;10.702;2023-04-25T00:21:41;10.13;;;4.80;;
45620;SDS011;31345;51.522;10.702;2023-04-25T00:24:17;8.80;;;4.93;;
45620;SDS011;31345;51.522;10.702;2023-04-25T00:26:49;10.27;;;5.17;;
45620;SDS011;31345;51.522;10.702;2023-04-25T00:29:22;7.70;;;4.40;;
45620;SDS011;31345;51.522;10.702;2023-04-25T00:31:56;7.73;;;5.30;;
45620;SDS011;31345;51.522;10.702;2023-04-25T00:34:28;12.83;;;5.40;;
45620;SDS011;31345;51.522;10.702;2023-04-25T00:36:56;8.43;;;4.23;;
45620;SDS011;31345;51.522;10.702;2023-04-25T00:39:28;8.03;;;4.43;;
45620;SDS011;31345;51.522;10.702;2023-04-25T00:41:56;11.90;;;4.43;;
45620;SDS011;31345;51.522;10.702;2023-04-25T00:44:29;11.47;;;5.23;;
45620;SDS011;31345;51.522;10.702;2023-04-25T00:47:00;9.10;;;5.23;;
45620;SDS011;31345;51.522;10.702;2023-04-25T00:49:34;13.20;;;5.37;;
45620;SDS011;31345;51.522;10.702;2023-04-25T00:52:07;9.33;;;4.60;;
45620;SDS011;31345;51.522;10.702;2023-04-25T00:54:40;13.80;;;5.27;;
45620;SDS011;31345;51.522;10.702;2023-04-25T00:57:12;8.53;;;4.83;;
45620;SDS011;31345;51.522;10.702;2023-04-25T00:59:40;12.87;;;4.73;;
45620;SDS011;31345;51.522;10.702;2023-04-25T01:02:19;10.03;;;4.73;;
45620;SDS011;31345;51.522;10.702;2023-04-25T01:04:52;9.03;;;4.40;;
45620;SDS011;31345;51.522;10.702;2023-04-25T01:07:25;6.97;;;4.63;;
45620;SDS011;31345;51.522;10.702;2023-04-25T01:09:58;10.33;;;4.80;;
45620;SDS011;31345;51.522;10.702;2023-04-25T01:12:31;10.27;;;5.23;;
45620;SDS011;31345;51.522;10.702;2023-04-25T01:15:04;11.63;;;4.57;;
45620;SDS011;31345;51.522;10.702;2023-04-25T01:17:39;9.13;;;4.37;;
45620;SDS011;31345;51.522;10.702;2023-04-25T01:20:14;11.60;;;5.03;;
45620;SDS011;31345;51.522;10.702;2023-04-25T01:22:44;8.60;;;4.90;;
45620;SDS011;31345;51.522;10.702;2023-04-25T01:25:18;11.40;;;5.20;;
45620;SDS011;31345;51.522;10.702;2023-04-25T01:27:46;9.57;;;5.27;;
45620;SDS011;31345;51.522;10.702;2023-04-25T01:30:15;13.40;;;5.50;;
45620;SDS011;31345;51.522;10.702;2023-04-25T01:32:43;14.90;;;6.30;;
45620;SDS011;31345;51.522;10.702;2023-04-25T01:35:11;11.07;;;5.27;;
45620;SDS011;31345;51.522;10.702;2023-04-25T01:37:46;11.13;;;6.60;;
45620;SDS011;31345;51.522;10.702;2023-04-25T01:40:39;13.57;;;5.50;;
45620;SDS011;31345;51.522;10.702;2023-04-25T01:43:08;11.23;;;5.97;;
45620;SDS011;31345;51.522;10.702;2023-04-25T01:45:42;11.90;;;6.00;;
45620;SDS011;31345;51.522;10.702;2023-04-25T01:48:11;12.40;;;6.60;;
45620;SDS011;31345;51.522;10.702;2023-04-25T01:50:45;12.97;;;6.70;;
45620;SDS011;31345;51.522;10.702;2023-04-25T01:53:20;11.60;;;6.73;;
45620;SDS011;31345;51.522;10.702;2023-04-25T01:55:53;13.97;;;7.07;;
45620;SDS011;31345;51.522;10.702;2023-04-25T01:58:23;17.37;;;7.30;;
45620;SDS011;31345;51.522;10.702;2023-04-25T02:01:07;13.00;;;7.10;;
45620;SDS011;31345;51.522;10.702;2023-04-25T02:03:43;14.77;;;6.83;;
45620;SDS011;31345;51.522;10.702;2023-04-25T02:06:24;13.77;;;7.25;;
45620;SDS011;31345;51.522;10.702;2023-04-25T02:08:55;13.77;;;7.43;;
45620;SDS011;31345;51.522;10.702;2023-04-25T02:11:27;12.27;;;7.40;;
45620;SDS011;31345;51.522;10.702;2023-04-25T02:14:20;11.60;;;7.23;;
45620;SDS011;31345;51.522;10.702;2023-04-25T02:17:15;13.57;;;7.03;;
45620;SDS011;31345;51.522;10.702;2023-04-25T02:19:49;16.23;;;7.60;;
45620;SDS011;31345;51.522;10.702;2023-04-25T02:22:17;18.70;;;8.47;;
45620;SDS011;31345;51.522;10.702;2023-04-25T02:24:47;13.90;;;7.33;;
45620;SDS011;31345;51.522;10.702;2023-04-25T02:27:19;15.30;;;7.10;;
45620;SDS011;31345;51.522;10.702;2023-04-25T02:29:52;16.30;;;7.57;;
45620;SDS011;31345;51.522;10.702;2023-04-25T02:32:24;12.23;;;7.33;;
45620;SDS011;31345;51.522;10.702;2023-04-25T02:34:57;13.47;;;7.77;;
45620;SDS011;31345;51.522;10.702;2023-04-25T02:37:30;10.80;;;6.97;;
45620;SDS011;31345;51.522;10.702;2023-04-25T02:39:59;11.10;;;6.80;;
45620;SDS011;31345;51.522;10.702;2023-04-25T02:42:31;12.90;;;7.03;;
45620;SDS011;31345;51.522;10.702;2023-04-25T02:44:59;11.23;;;6.83;;
45620;SDS011;31345;51.522;10.702;2023-04-25T02:47:27;14.93;;;7.37;;
45620;SDS011;31345;51.522;10.702;2023-04-25T02:49:59;14.27;;;7.60;;
45620;SDS011;31345;51.522;10.702;2023-04-25T02:52:31;11.73;;;6.97;;
45620;SDS011;31345;51.522;10.702;2023-04-25T02:55:15;13.83;;;7.03;;
45620;SDS011;31345;51.522;10.702;2023-04-25T03:00:24;12.43;;;6.87;;
45620;SDS011;31345;51.522;10.702;2023-04-25T03:02:57;11.77;;;6.97;;
45620;SDS011;31345;51.522;10.702;2023-04-25T03:05:30;13.70;;;6.90;;
45620;SDS011;31345;51.522;10.702;2023-04-25T03:08:02;11.73;;;6.80;;
45620;SDS011;31345;51.522;10.702;2023-04-25T03:10:34;15.73;;;7.73;;
45620;SDS011;31345;51.522;10.702;2023-04-25T03:13:10;12.77;;;7.33;;
45620;SDS011;31345;51.522;10.702;2023-04-25T03:15:40;14.10;;;7.33;;
45620;SDS011;31345;51.522;10.702;2023-04-25T03:18:08;12.87;;;6.67;;
45620;SDS011;31345;51.522;10.702;2023-04-25T03:20:40;12.87;;;6.70;;
45620;SDS011;31345;51.522;10.702;2023-04-25T03:23:14;14.00;;;7.00;;
45620;SDS011;31345;51.522;10.702;2023-04-25T03:25:43;15.13;;;7.73;;
45620;SDS011;31345;51.522;10.702;2023-04-25T03:28:16;13.00;;;7.30;;
45620;SDS011;31345;51.522;10.702;2023-04-25T03:30:49;13.60;;;7.40;;
45620;SDS011;31345;51.522;10.702;2023-04-25T03:33:17;13.73;;;7.50;;
45620;SDS011;31345;51.522;10.702;2023-04-25T03:35:50;19.57;;;8.07;;
45620;SDS011;31345;51.522;10.702;2023-04-25T03:38:24;14.50;;;7.63;;
45620;SDS011;31345;51.522;10.702;2023-04-25T03:40:53;13.87;;;7.17;;
45620;SDS011;31345;51.522;10.702;2023-04-25T03:43:39;15.80;;;6.80;;
45620;SDS011;31345;51.522;10.702;2023-04-25T03:46:10;16.07;;;8.13;;
45620;SDS011;31345;51.522;10.702;2023-04-25T03:48:45;17.37;;;8.20;;
45620;SDS011;31345;51.522;10.702;2023-04-25T03:51:18;18.20;;;9.23;;
45620;SDS011;31345;51.522;10.702;2023-04-25T03:53:47;16.20;;;9.20;;
45620;SDS011;31345;51.522;10.702;2023-04-25T03:56:21;17.73;;;9.73;;
45620;SDS011;31345;51.522;10.702;2023-04-25T03:59:01;20.03;;;11.23;;
45620;SDS011;31345;51.522;10.702;2023-04-25T04:01:35;20.20;;;10.63;;
45620;SDS011;31345;51.522;10.702;2023-04-25T04:06:46;19.50;;;10.20;;
45620;SDS011;31345;51.522;10.702;2023-04-25T04:09:24;22.20;;;10.00;;
45620;SDS011;31345;51.522;10.702;2023-04-25T04:14:57;17.10;;;10.03;;
45620;SDS011;31345;51.522;10.702;2023-04-25T04:17:26;20.53;;;10.47;;
45620;SDS011;31345;51.522;10.702;2023-04-25T04:19:53;18.30;;;10.07;;
45620;SDS011;31345;51.522;10.702;2023-04-25T04:22:22;20.87;;;9.60;;
45620;SDS011;31345;51.522;10.702;2023-04-25T04:24:52;18.20;;;10.00;;
45620;SDS011;31345;51.522;10.702;2023-04-25T04:30:57;16.37;;;8.70;;
45620;SDS011;31345;51.522;10.702;2023-04-25T04:33:30;17.13;;;10.17;;
45620;SDS011;31345;51.522;10.702;2023-04-25T04:36:06;19.60;;;9.93;;
45620;SDS011;31345;51.522;10.702;2023-04-25T04:41:46;20.30;;;9.55;;
45620;SDS011;31345;51.522;10.702;2023-04-25T04:53:46;22.40;;;9.23;;
45620;SDS011;31345;51.522;10.702;2023-04-25T04:56:21;15.97;;;8.87;;
45620;SDS011;31345;51.522;10.702;2023-04-25T04:59:13;18.23;;;9.10;;
45620;SDS011;31345;51.522;10.702;2023-04-25T05:01:58;15.40;;;9.00;;
45620;SDS011;31345;51.522;10.702;2023-04-25T05:05:01;17.50;;;9.87;;
45620;SDS011;31345;51.522;10.702;2023-04-25T05:08:00;16.43;;;9.93;;
45620;SDS011;31345;51.522;10.702;2023-04-25T05:10:50;19.73;;;10.70;;
45620;SDS011;31345;51.522;10.702;2023-04-25T05:13:43;18.30;;;9.67;;
45620;SDS011;31345;51.522;10.702;2023-04-25T05:16:37;19.33;;;10.30;;
45620;SDS011;31345;51.522;10.702;2023-04-25T05:19:39;16.40;;;10.00;;
45620;SDS011;31345;51.522;10.702;2023-04-25T05:22:23;19.97;;;10.40;;
45620;SDS011;31345;51.522;10.702;2023-04-25T05:25:16;17.83;;;10.20;;
45620;SDS011;31345;51.522;10.702;2023-04-25T05:28:10;20.98;;;10.63;;
45620;SDS011;31345;51.522;10.702;2023-04-25T05:31:02;20.57;;;10.93;;
45620;SDS011;31345;51.522;10.702;2023-04-25T05:33:41;25.27;;;11.00;;
45620;SDS011;31345;51.522;10.702;2023-04-25T05:36:09;23.33;;;11.27;;
45620;SDS011;31345;51.522;10.702;2023-04-25T05:38:42;19.70;;;11.13;;
45620;SDS011;31345;51.522;10.702;2023-04-25T05:41:24;27.80;;;11.93;;
45620;SDS011;31345;51.522;10.702;2023-04-25T05:44:18;21.57;;;12.20;;
45620;SDS011;31345;51.522;10.702;2023-04-25T05:47:03;23.67;;;11.47;;
45620;SDS011;31345;51.522;10.702;2023-04-25T05:50:06;19.70;;;11.73;;
45620;SDS011;31345;51.522;10.702;2023-04-25T05:52:44;22.40;;;12.13;;
45620;SDS011;31345;51.522;10.702;2023-04-25T05:55:29;26.27;;;11.90;;
45620;SDS011;31345;51.522;10.702;2023-04-25T05:57:59;23.40;;;12.20;;
45620;SDS011;31345;51.522;10.702;2023-04-25T06:00:28;23.33;;;11.53;;
45620;SDS011;31345;51.522;10.702;2023-04-25T06:02:58;22.00;;;11.17;;
45620;SDS011;31345;51.522;10.702;2023-04-25T06:05:27;21.67;;;11.43;;
45620;SDS011;31345;51.522;10.702;2023-04-25T06:07:59;23.27;;;11.67;;
45620;SDS011;31345;51.522;10.702;2023-04-25T06:10:32;18.50;;;10.93;;
45620;SDS011;31345;51.522;10.702;2023-04-25T06:13:04;17.63;;;11.00;;
45620;SDS011;31345;51.522;10.702;2023-04-25T06:15:41;13.33;;;9.10;;
45620;SDS011;31345;51.522;10.702;2023-04-25T06:18:14;12.87;;;7.63;;
45620;SDS011;31345;51.522;10.702;2023-04-25T06:20:42;13.80;;;7.97;;
45620;SDS011;31345;51.522;10.702;2023-04-25T06:23:15;17.03;;;8.63;;
45620;SDS011;31345;51.522;10.702;2023-04-25T06:25:56;13.02;;;7.40;;
45620;SDS011;31345;51.522;10.702;2023-04-25T06:28:30;9.37;;;7.20;;
45620;SDS011;31345;51.522;10.702;2023-04-25T06:31:04;15.23;;;8.90;;
45620;SDS011;31345;51.522;10.702;2023-04-25T06:33:36;11.47;;;7.87;;
45620;SDS011;31345;51.522;10.702;2023-04-25T06:36:09;13.80;;;8.43;;
45620;SDS011;31345;51.522;10.702;2023-04-25T06:38:41;15.20;;;9.65;;
45620;SDS011;31345;51.522;10.702;2023-04-25T06:41:13;11.40;;;7.10;;
45620;SDS011;31345;51.522;10.702;2023-04-25T06:43:41;8.90;;;7.03;;
45620;SDS011;31345;51.522;10.702;2023-04-25T06:46:31;13.93;;;6.63;;
45620;SDS011;31345;51.522;10.702;2023-04-25T06:49:05;11.27;;;6.80;;
45620;SDS011;31345;51.522;10.702;2023-04-25T06:51:33;10.33;;;6.17;;
45620;SDS011;31345;51.522;10.702;2023-04-25T06:54:01;11.07;;;6.60;;
45620;SDS011;31345;51.522;10.702;2023-04-25T06:56:38;9.47;;;5.20;;
45620;SDS011;31345;51.522;10.702;2023-04-25T06:59:13;9.70;;;6.03;;
45620;SDS011;31345;51.522;10.702;2023-04-25T07:01:49;10.50;;;5.70;;
45620;SDS011;31345;51.522;10.702;2023-04-25T07:04:26;7.28;;;4.60;;
45620;SDS011;31345;51.522;10.702;2023-04-25T07:07:02;8.30;;;4.50;;
45620;SDS011;31345;51.522;10.702;2023-04-25T07:09:37;10.40;;;4.43;;
45620;SDS011;31345;51.522;10.702;2023-04-25T07:12:12;10.68;;;4.88;;
45620;SDS011;31345;51.522;10.702;2023-04-25T07:14:45;13.98;;;3.97;;
45620;SDS011;31345;51.522;10.702;2023-04-25T07:22:48;11.82;;;5.32;;
45620;SDS011;31345;51.522;10.702;2023-04-25T07:28:31;11.93;;;4.50;;
45620;SDS011;31345;51.522;10.702;2023-04-25T07:31:02;15.13;;;4.33;;
45620;SDS011;31345;51.522;10.702;2023-04-25T07:33:33;14.48;;;4.25;;
45620;SDS011;31345;51.522;10.702;2023-04-25T07:36:02;13.60;;;4.20;;
45620;SDS011;31345;51.522;10.702;2023-04-25T07:38:35;10.90;;;5.05;;
45620;SDS011;31345;51.522;10.702;2023-04-25T07:41:03;14.73;;;5.25;;
45620;SDS011;31345;51.522;10.702;2023-04-25T07:43:30;13.70;;;5.55;;
45620;SDS011;31345;51.522;10.702;2023-04-25T07:46:04;17.20;;;4.73;;
45620;SDS011;31345;51.522;10.702;2023-04-25T07:48:34;11.77;;;4.50;;
45620;SDS011;31345;51.522;10.702;2023-04-25T07:51:08;23.42;;;5.32;;
45620;SDS011;31345;51.522;10.702;2023-04-25T07:53:42;14.13;;;4.88;;
45620;SDS011;31345;51.522;10.702;2023-04-25T07:56:13;17.00;;;4.93;;
45620;SDS011;31345;51.522;10.702;2023-04-25T07:58:44;12.00;;;4.77;;
45620;SDS011;31345;51.522;10.702;2023-04-25T08:01:14;14.90;;;5.10;;
45620;SDS011;31345;51.522;10.702;2023-04-25T08:04:01;16.45;;;5.00;;
45620;SDS011;31345;51.522;10.702;2023-04-25T08:06:53;12.70;;;4.80;;
45620;SDS011;31345;51.522;10.702;2023-04-25T08:09:27;12.80;;;4.47;;
45620;SDS011;31345;51.522;10.702;2023-04-25T08:12:01;17.20;;;4.93;;
45620;SDS011;31345;51.522;10.702;2023-04-25T08:14:31;15.07;;;4.75;;
45620;SDS011;31345;51.522;10.702;2023-04-25T08:17:09;16.25;;;5.15;;
45620;SDS011;31345;51.522;10.702;2023-04-25T08:19:40;19.35;;;5.30;;
45620;SDS011;31345;51.522;10.702;2023-04-25T08:22:18;17.75;;;5.15;;
45620;SDS011;31345;51.522;10.702;2023-04-25T08:24:52;14.38;;;5.70;;
45620;SDS011;31345;51.522;10.702;2023-04-25T08:27:21;26.83;;;6.05;;
45620;SDS011;31345;51.522;10.702;2023-04-25T08:29:50;14.23;;;5.13;;
45620;SDS011;31345;51.522;10.702;2023-04-25T08:32:19;17.10;;;4.90;;
45620;SDS011;31345;51.522;10.702;2023-04-25T08:35:02;15.48;;;5.57;;
45620;SDS011;31345;51.522;10.702;2023-04-25T08:37:32;18.70;;;5.38;;
45620;SDS011;31345;51.522;10.702;2023-04-25T08:40:13;18.13;;;5.13;;
45620;SDS011;31345;51.522;10.702;2023-04-25T08:42:49;12.18;;;5.05;;
45620;SDS011;31345;51.522;10.702;2023-04-25T08:45:24;14.32;;;5.05;;
45620;SDS011;31345;51.522;10.702;2023-04-25T08:47:54;14.20;;;4.63;;
45620;SDS011;31345;51.522;10.702;2023-04-25T08:50:24;13.18;;;5.40;;
45620;SDS011;31345;51.522;10.702;2023-04-25T08:52:59;16.00;;;4.80;;
45620;SDS011;31345;51.522;10.702;2023-04-25T08:55:36;16.08;;;5.10;;
45620;SDS011;31345;51.522;10.702;2023-04-25T08:58:10;17.63;;;4.82;;
45620;SDS011;31345;51.522;10.702;2023-04-25T09:00:43;14.75;;;5.03;;
45620;SDS011;31345;51.522;10.702;2023-04-25T09:03:12;16.08;;;5.00;;
45620;SDS011;31345;51.522;10.702;2023-04-25T09:05:41;12.70;;;4.25;;
45620;SDS011;31345;51.522;10.702;2023-04-25T09:08:15;14.02;;;4.43;;
45620;SDS011;31345;51.522;10.702;2023-04-25T09:10:43;12.63;;;4.60;;
45620;SDS011;31345;51.522;10.702;2023-04-25T09:13:23;16.60;;;4.60;;
45620;SDS011;31345;51.522;10.702;2023-04-25T09:16:16;18.98;;;4.85;;
45620;SDS011;31345;51.522;10.702;2023-04-25T09:19:20;17.27;;;4.45;;
45620;SDS011;31345;51.522;10.702;2023-04-25T09:21:50;13.00;;;4.80;;
45620;SDS011;31345;51.522;10.702;2023-04-25T09:24:20;13.40;;;5.07;;
45620;SDS011;31345;51.522;10.702;2023-04-25T09:27:03;19.02;;;4.85;;
45620;SDS011;31345;51.522;10.702;2023-04-25T09:29:32;12.55;;;4.25;;
45620;SDS011;31345;51.522;10.702;2023-04-25T09:32:10;17.27;;;4.45;;
45620;SDS011;31345;51.522;10.702;2023-04-25T09:34:43;11.57;;;4.07;;
45620;SDS011;31345;51.522;10.702;2023-04-25T09:40:12;14.02;;;4.35;;
45620;SDS011;31345;51.522;10.702;2023-04-25T09:43:02;10.95;;;3.47;;
45620;SDS011;31345;51.522;10.702;2023-04-25T09:45:40;12.35;;;4.32;;
45620;SDS011;31345;51.522;10.702;2023-04-25T09:48:17;14.32;;;4.22;;
45620;SDS011;31345;51.522;10.702;2023-04-25T09:50:52;11.77;;;4.35;;
45620;SDS011;31345;51.522;10.702;2023-04-25T09:53:37;11.38;;;3.80;;
45620;SDS011;31345;51.522;10.702;2023-04-25T09:56:22;12.70;;;4.32;;
45620;SDS011;31345;51.522;10.702;2023-04-25T09:58:57;10.93;;;3.70;;
45620;SDS011;31345;51.522;10.702;2023-04-25T10:01:31;14.57;;;3.80;;
45620;SDS011;31345;51.522;10.702;2023-04-25T10:04:11;8.38;;;2.92;;
45620;SDS011;31345;51.522;10.702;2023-04-25T10:06:55;13.52;;;3.75;;
45620;SDS011;31345;51.522;10.702;2023-04-25T10:09:28;13.38;;;3.92;;
45620;SDS011;31345;51.522;10.702;2023-04-25T10:12:02;7.32;;;2.50;;
45620;SDS011;31345;51.522;10.702;2023-04-25T10:14:35;9.90;;;2.47;;
45620;SDS011;31345;51.522;10.702;2023-04-25T10:17:08;8.30;;;2.00;;
45620;SDS011;31345;51.522;10.702;2023-04-25T10:19:42;9.02;;;2.33;;
45620;SDS011;31345;51.522;10.702;2023-04-25T10:22:11;9.10;;;2.38;;
45620;SDS011;31345;51.522;10.702;2023-04-25T10:24:47;4.95;;;2.38;;
45620;SDS011;31345;51.522;10.702;2023-04-25T10:27:22;5.38;;;2.08;;
45620;SDS011;31345;51.522;10.702;2023-04-25T10:30:00;5.07;;;2.03;;
45620;SDS011;31345;51.522;10.702;2023-04-25T10:32:30;10.73;;;2.05;;
45620;SDS011;31345;51.522;10.702;2023-04-25T10:35:04;10.38;;;2.40;;
45620;SDS011;31345;51.522;10.702;2023-04-25T10:37:58;9.15;;;2.40;;
45620;SDS011;31345;51.522;10.702;2023-04-25T10:40:27;7.22;;;2.00;;
45620;SDS011;31345;51.522;10.702;2023-04-25T10:46:15;8.85;;;2.30;;
45620;SDS011;31345;51.522;10.702;2023-04-25T10:48:45;9.52;;;2.15;;
45620;SDS011;31345;51.522;10.702;2023-04-25T10:51:21;7.10;;;2.67;;
45620;SDS011;31345;51.522;10.702;2023-04-25T10:53:57;8.68;;;3.00;;
45620;SDS011;31345;51.522;10.702;2023-04-25T10:56:31;11.60;;;3.10;;
45620;SDS011;31345;51.522;10.702;2023-04-25T10:59:10;14.27;;;2.85;;
45620;SDS011;31345;51.522;10.702;2023-04-25T11:01:45;6.63;;;2.58;;
45620;SDS011;31345;51.522;10.702;2023-04-25T11:04:20;7.05;;;2.60;;
45620;SDS011;31345;51.522;10.702;2023-04-25T11:06:55;7.80;;;2.33;;
45620;SDS011;31345;51.522;10.702;2023-04-25T11:09:29;10.13;;;2.65;;
45620;SDS011;31345;51.522;10.702;2023-04-25T11:12:02;9.38;;;2.63;;
45620;SDS011;31345;51.522;10.702;2023-04-25T11:14:32;8.63;;;2.63;;
45620;SDS011;31345;51.522;10.702;2023-04-25T11:17:00;11.23;;;2.88;;
45620;SDS011;31345;51.522;10.702;2023-04-25T11:19:33;9.70;;;2.63;;
45620;SDS011;31345;51.522;10.702;2023-04-25T11:22:06;7.57;;;2.58;;
45620;SDS011;31345;51.522;10.702;2023-04-25T11:24:39;5.55;;;2.25;;
45620;SDS011;31345;51.522;10.702;2023-04-25T11:27:12;12.07;;;2.60;;
45620;SDS011;31345;51.522;10.702;2023-04-25T11:29:46;4.68;;;2.22;;
45620;SDS011;31345;51.522;10.702;2023-04-25T11:32:20;6.50;;;2.63;;
45620;SDS011;31345;51.522;10.702;2023-04-25T11:34:52;26.48;;;4.60;;
45620;SDS011;31345;51.522;10.702;2023-04-25T11:37:25;9.88;;;2.10;;
45620;SDS011;31345;51.522;10.702;2023-04-25T11:39:53;7.47;;;2.45;;
45620;SDS011;31345;51.522;10.702;2023-04-25T11:42:25;4.53;;;2.20;;
45620;SDS011;31345;51.522;10.702;2023-04-25T11:45:00;12.18;;;2.42;;
45620;SDS011;31345;51.522;10.702;2023-04-25T11:47:28;21.33;;;3.97;;
45620;SDS011;31345;51.522;10.702;2023-04-25T11:49:57;15.77;;;2.90;;
45620;SDS011;31345;51.522;10.702;2023-04-25T11:52:34;6.43;;;2.17;;
45620;SDS011;31345;51.522;10.702;2023-04-25T11:55:08;9.90;;;2.72;;
45620;SDS011;31345;51.522;10.702;2023-04-25T11:57:37;4.68;;;2.05;;
45620;SDS011;31345;51.522;10.702;2023-04-25T12:00:12;4.97;;;2.00;;
45620;SDS011;31345;51.522;10.702;2023-04-25T12:02:41;21.98;;;4.15;;
45620;SDS011;31345;51.522;10.702;2023-04-25T12:05:14;10.80;;;3.17;;
45620;SDS011;31345;51.522;10.702;2023-04-25T12:07:42;9.60;;;2.78;;
45620;SDS011;31345;51.522;10.702;2023-04-25T12:10:11;9.57;;;2.55;;
45620;SDS011;31345;51.522;10.702;2023-04-25T12:12:45;7.35;;;2.83;;
45620;SDS011;31345;51.522;10.702;2023-04-25T12:15:24;10.75;;;3.40;;
45620;SDS011;31345;51.522;10.702;2023-04-25T12:17:57;12.75;;;3.40;;
45620;SDS011;31345;51.522;10.702;2023-04-25T12:20:31;17.25;;;3.40;;
45620;SDS011;31345;51.522;10.702;2023-04-25T12:23:05;7.82;;;2.60;;
45620;SDS011;31345;51.522;10.702;2023-04-25T12:25:35;15.48;;;3.53;;
45620;SDS011;31345;51.522;10.702;2023-04-25T12:28:09;9.55;;;2.20;;
45620;SDS011;31345;51.522;10.702;2023-04-25T12:30:57;6.18;;;2.47;;
45620;SDS011;31345;51.522;10.702;2023-04-25T12:33:27;5.80;;;2.30;;
45620;SDS011;31345;51.522;10.702;2023-04-25T12:36:02;18.27;;;4.15;;
45620;SDS011;31345;51.522;10.702;2023-04-25T12:38:36;8.52;;;3.08;;
45620;SDS011;31345;51.522;10.702;2023-04-25T12:41:05;7.45;;;2.47;;
45620;SDS011;31345;51.522;10.702;2023-04-25T12:43:33;7.90;;;2.70;;
45620;SDS011;31345;51.522;10.702;2023-04-25T12:46:07;9.75;;;2.85;;
45620;SDS011;31345;51.522;10.702;2023-04-25T12:48:40;30.08;;;5.88;;
45620;SDS011;31345;51.522;10.702;2023-04-25T12:51:13;26.27;;;4.22;;
45620;SDS011;31345;51.522;10.702;2023-04-25T12:53:46;9.85;;;2.97;;
45620;SDS011;31345;51.522;10.702;2023-04-25T12:56:15;8.70;;;2.72;;
45620;SDS011;31345;51.522;10.702;2023-04-25T12:58:48;10.75;;;2.85;;
45620;SDS011;31345;51.522;10.702;2023-04-25T13:01:22;9.55;;;2.83;;
45620;SDS011;31345;51.522;10.702;2023-04-25T13:03:50;26.30;;;4.80;;
45620;SDS011;31345;51.522;10.702;2023-04-25T13:06:18;11.27;;;3.05;;
45620;SDS011;31345;51.522;10.702;2023-04-25T13:08:46;6.75;;;2.47;;
45620;SDS011;31345;51.522;10.702;2023-04-25T13:11:19;11.77;;;3.17;;
45620;SDS011;31345;51.522;10.702;2023-04-25T13:13:52;9.38;;;2.85;;
45620;SDS011;31345;51.522;10.702;2023-04-25T13:16:26;14.38;;;3.38;;
45620;SDS011;31345;51.522;10.702;2023-04-25T13:18:53;8.45;;;2.63;;
45620;SDS011;31345;51.522;10.702;2023-04-25T13:21:26;8.15;;;2.95;;
45620;SDS011;31345;51.522;10.702;2023-04-25T13:24:02;12.90;;;2.60;;
45620;SDS011;31345;51.522;10.702;2023-04-25T13:26:35;10.23;;;2.22;;
45620;SDS011;31345;51.522;10.702;2023-04-25T13:29:03;6.07;;;2.22;;
45620;SDS011;31345;51.522;10.702;2023-04-25T13:31:37;10.32;;;2.67;;
45620;SDS011;31345;51.522;10.702;2023-04-25T13:34:10;18.02;;;3.90;;
45620;SDS011;31345;51.522;10.702;2023-04-25T13:36:38;5.80;;;2.22;;
45620;SDS011;31345;51.522;10.702;2023-04-25T13:39:11;8.52;;;2.22;;
45620;SDS011;31345;51.522;10.702;2023-04-25T13:41:44;10.85;;;2.92;;
45620;SDS011;31345;51.522;10.702;2023-04-25T13:44:17;9.65;;;2.58;;
45620;SDS011;31345;51.522;10.702;2023-04-25T13:46:46;7.03;;;1.92;;
45620;SDS011;31345;51.522;10.702;2023-04-25T13:49:18;6.90;;;2.60;;
45620;SDS011;31345;51.522;10.702;2023-04-25T13:51:46;7.38;;;2.70;;
45620;SDS011;31345;51.522;10.702;2023-04-25T13:54:19;6.82;;;2.13;;
45620;SDS011;31345;51.522;10.702;2023-04-25T13:56:47;6.75;;;2.17;;
45620;SDS011;31345;51.522;10.702;2023-04-25T13:59:14;8.15;;;2.58;;
45620;SDS011;31345;51.522;10.702;2023-04-25T14:01:49;7.18;;;2.47;;
45620;SDS011;31345;51.522;10.702;2023-04-25T14:04:21;5.00;;;2.20;;
45620;SDS011;31345;51.522;10.702;2023-04-25T14:06:49;5.43;;;2.60;;
45620;SDS011;31345;51.522;10.702;2023-04-25T14:09:22;7.43;;;2.58;;
45620;SDS011;31345;51.522;10.702;2023-04-25T14:11:51;6.93;;;2.28;;
45620;SDS011;31345;51.522;10.702;2023-04-25T14:14:19;19.35;;;3.88;;
45620;SDS011;31345;51.522;10.702;2023-04-25T14:16:47;5.80;;;2.70;;
45620;SDS011;31345;51.522;10.702;2023-04-25T14:19:22;8.50;;;2.40;;
45620;SDS011;31345;51.522;10.702;2023-04-25T14:21:50;5.93;;;2.30;;
45620;SDS011;31345;51.522;10.702;2023-04-25T14:24:18;6.00;;;2.25;;
45620;SDS011;31345;51.522;10.702;2023-04-25T14:26:45;19.45;;;3.72;;
45620;SDS011;31345;51.522;10.702;2023-04-25T14:29:18;18.63;;;3.78;;
45620;SDS011;31345;51.522;10.702;2023-04-25T14:31:52;11.45;;;2.67;;
45620;SDS011;31345;51.522;10.702;2023-04-25T14:34:25;18.42;;;3.38;;
45620;SDS011;31345;51.522;10.702;2023-04-25T14:36:57;14.65;;;2.70;;
45620;SDS011;31345;51.522;10.702;2023-04-25T14:39:25;6.47;;;2.58;;
45620;SDS011;31345;51.522;10.702;2023-04-25T14:41:53;5.20;;;2.65;;
45620;SDS011;31345;51.522;10.702;2023-04-25T14:44:25;8.70;;;2.47;;
45620;SDS011;31345;51.522;10.702;2023-04-25T14:46:59;4.68;;;2.40;;
45620;SDS011;31345;51.522;10.702;2023-04-25T14:49:32;7.05;;;2.50;;
45620;SDS011;31345;51.522;10.702;2023-04-25T14:52:05;6.63;;;2.50;;
45620;SDS011;31345;51.522;10.702;2023-04-25T14:54:32;6.35;;;2.20;;
45620;SDS011;31345;51.522;10.702;2023-04-25T14:57:05;8.48;;;2.72;;
45620;SDS011;31345;51.522;10.702;2023-04-25T14:59:33;5.57;;;2.28;;
45620;SDS011;31345;51.522;10.702;2023-04-25T15:02:03;7.20;;;2.53;;
45620;SDS011;31345;51.522;10.702;2023-04-25T15:04:35;6.97;;;2.13;;
45620;SDS011;31345;51.522;10.702;2023-04-25T15:07:03;9.98;;;2.38;;
45620;SDS011;31345;51.522;10.702;2023-04-25T15:09:35;7.47;;;2.55;;
45620;SDS011;31345;51.522;10.702;2023-04-25T15:12:08;5.95;;;2.13;;
45620;SDS011;31345;51.522;10.702;2023-04-25T15:14:36;6.90;;;2.08;;
45620;SDS011;31345;51.522;10.702;2023-04-25T15:17:10;2.78;;;1.60;;
45620;SDS011;31345;51.522;10.702;2023-04-25T15:19:44;5.57;;;2.03;;
45620;SDS011;31345;51.522;10.702;2023-04-25T15:22:17;5.05;;;2.00;;
45620;SDS011;31345;51.522;10.702;2023-04-25T15:24:50;5.38;;;2.00;;
45620;SDS011;31345;51.522;10.702;2023-04-25T15:27:18;4.22;;;1.50;;
45620;SDS011;31345;51.522;10.702;2023-04-25T15:29:50;4.40;;;1.52;;
45620;SDS011;31345;51.522;10.702;2023-04-25T15:32:25;5.13;;;1.88;;
45620;SDS011;31345;51.522;10.702;2023-04-25T15:34:58;4.15;;;1.80;;
45620;SDS011;31345;51.522;10.702;2023-04-25T15:37:30;5.35;;;2.60;;
45620;SDS011;31345;51.522;10.702;2023-04-25T15:40:00;5.97;;;2.30;;
45620;SDS011;31345;51.522;10.702;2023-04-25T15:42:37;5.47;;;2.05;;
45620;SDS011;31345;51.522;10.702;2023-04-25T15:45:11;7.53;;;2.28;;